This is the latest recevied weather packets stored in our database for station/object W4MSI. If no packets are shown the sender has not sent any weather packets the latest 10 day(s).
| Time | Temp. | Humidity | Pressure | Rain* | Wind** | Luminosity | Snow |
|---|---|---|---|---|---|---|---|
| 1777564047 | 14.44° C | 44% | 1017.4 hPa | 0 mm | - | 721 W/m² | - |
| 1777563744 | 13.89° C | 45% | 1017.4 hPa | 0 mm | - | 713 W/m² | - |
| 1777563440 | 14.44° C | 44% | 1017.3 hPa | 0 mm | - | 698 W/m² | - |
| 1777563140 | 14.44° C | 42% | 1017.1 hPa | 0 mm | - | 683 W/m² | - |
| 1777562836 | 13.89° C | 44% | 1017.3 hPa | 0 mm | - | 677 W/m² | - |
| 1777562534 | 13.89° C | 46% | 1017.3 hPa | 0 mm | - | 659 W/m² | - |
| 1777562231 | 13.89° C | 45% | 1017.3 hPa | 0 mm | - | 643 W/m² | - |
| 1777561929 | 13.89° C | 47% | 1017.3 hPa | 0 mm | - | 633 W/m² | - |
| 1777561625 | 13.89° C | 47% | 1017.2 hPa | 0 mm | - | 615 W/m² | - |
| 1777561322 | 13.89° C | 50% | 1017.5 hPa | 0 mm | - | 597 W/m² | - |
| 1777561022 | 14.44° C | 48% | 1017.3 hPa | 0 mm | - | 583 W/m² | - |
| 1777560717 | 13.33° C | 51% | 1017.5 hPa | 0 mm | - | 565 W/m² | - |
| 1777560414 | 13.89° C | 44% | 1017.7 hPa | 0 mm | - | 543 W/m² | - |
| 1777560113 | 13.89° C | 47% | 1017.7 hPa | 0 mm | - | 532 W/m² | - |
| 1777559809 | 13.33° C | 51% | 1017.5 hPa | 0 mm | - | 504 W/m² | - |
| 1777559505 | 13.89° C | 52% | 1017.7 hPa | 0 mm | - | 487 W/m² | - |
| 1777559203 | 13.33° C | 51% | 1017.5 hPa | 0 mm | - | 461 W/m² | - |
| 1777558903 | 13.33° C | 51% | 1017.7 hPa | 0 mm | - | 452 W/m² | - |
| 1777558599 | 12.78° C | 57% | 1017.4 hPa | 0 mm | - | 429 W/m² | - |
| 1777558294 | 12.78° C | 56% | 1017.5 hPa | 0 mm | - | 402 W/m² | - |
| 1777557991 | 12.78° C | 57% | 1017.5 hPa | 0 mm | - | 390 W/m² | - |
| 1777557688 | 12.22° C | 58% | 1017.5 hPa | 0 mm | - | 367 W/m² | - |
| 1777557384 | 12.78° C | 59% | 1017.4 hPa | 0 mm | - | 343 W/m² | - |
| 1777557081 | 12.78° C | 60% | 1017.3 hPa | 0 mm | - | 334 W/m² | - |
| 1777556776 | 12.78° C | 63% | 1017.4 hPa | 0 mm | - | 312 W/m² | - |
* Rain latest hour (hover to see other rain measurements)
** Current wind speed in m/s (hover to see current wind gust speed)